createdAt,value
2019-02-12T00:01:06.601Z,92.68
2019-02-12T00:03:39.180Z,92.80
2019-02-12T00:06:11.853Z,92.91
2019-02-12T00:08:44.437Z,92.94
2019-02-12T00:11:17.078Z,93.04
2019-02-12T00:13:49.752Z,93.12
2019-02-12T00:16:22.344Z,93.09
2019-02-12T00:18:54.913Z,93.00
2019-02-12T00:21:27.474Z,92.86
2019-02-12T00:24:00.078Z,92.87
2019-02-12T00:26:32.698Z,92.83
2019-02-12T00:29:05.328Z,92.74
2019-02-12T00:31:37.892Z,92.71
2019-02-12T00:34:10.582Z,92.72
2019-02-12T00:36:43.241Z,92.75
2019-02-12T00:39:16.921Z,92.76
2019-02-12T00:41:49.502Z,92.80
2019-02-12T00:44:22.481Z,92.81
2019-02-12T00:46:55.225Z,92.75
2019-02-12T00:49:27.796Z,92.77
2019-02-12T00:52:00.476Z,92.80
2019-02-12T00:54:33.100Z,92.77
2019-02-12T00:57:05.676Z,92.74
2019-02-12T00:59:38.477Z,92.65
2019-02-12T01:02:11.733Z,92.49
2019-02-12T01:04:44.479Z,92.47
2019-02-12T01:07:17.145Z,92.31
2019-02-12T01:09:49.744Z,92.30
2019-02-12T01:12:22.519Z,92.42
2019-02-12T01:14:55.194Z,92.37
2019-02-12T01:17:27.823Z,92.47
2019-02-12T01:20:00.451Z,92.56
2019-02-12T01:22:33.094Z,92.65
2019-02-12T01:25:05.883Z,92.76
2019-02-12T01:27:38.584Z,92.90
2019-02-12T01:30:16.730Z,92.99
2019-02-12T01:32:49.626Z,93.12
2019-02-12T01:35:22.291Z,93.12
2019-02-12T01:37:55.066Z,93.06
2019-02-12T01:40:27.766Z,93.02
2019-02-12T01:43:00.386Z,92.99
2019-02-12T01:45:33.050Z,93.02
2019-02-12T01:48:05.728Z,93.03
2019-02-12T01:50:38.402Z,93.01
2019-02-12T01:53:11.106Z,92.90
2019-02-12T01:55:43.877Z,92.88
2019-02-12T01:58:16.729Z,92.83
2019-02-12T02:00:49.390Z,92.83
2019-02-12T02:03:22.079Z,92.80
2019-02-12T02:05:54.625Z,92.83
2019-02-12T02:08:27.414Z,92.84
2019-02-12T02:11:03.145Z,92.79
2019-02-12T02:13:35.828Z,92.77
2019-02-12T02:16:08.623Z,92.76
2019-02-12T02:18:41.247Z,92.78
2019-02-12T02:21:14.127Z,92.77
2019-02-12T02:23:46.744Z,92.70
2019-02-12T02:26:19.341Z,92.70
2019-02-12T02:28:52.031Z,92.63
2019-02-12T02:31:24.702Z,92.68
2019-02-12T02:33:57.321Z,92.71
2019-02-12T02:36:30.037Z,92.52
2019-02-12T02:39:02.633Z,92.58
2019-02-12T02:41:35.270Z,92.79
2019-02-12T02:44:07.940Z,92.99
2019-02-12T02:46:40.735Z,93.10
2019-02-12T02:49:13.312Z,93.04
2019-02-12T02:51:53.772Z,92.99
2019-02-12T02:54:19.978Z,92.85
2019-02-12T02:56:52.618Z,92.78
2019-02-12T02:59:25.214Z,92.79
2019-02-12T03:01:57.834Z,92.91
2019-02-12T03:04:30.591Z,92.99
2019-02-12T03:07:03.257Z,92.98
2019-02-12T03:09:35.887Z,92.95
2019-02-12T03:12:08.634Z,92.86
2019-02-12T03:14:41.272Z,92.84
2019-02-12T03:17:14.134Z,92.81
2019-02-12T03:19:49.976Z,92.73
2019-02-12T03:22:22.694Z,92.84
2019-02-12T03:24:55.347Z,92.97
2019-02-12T03:27:28.027Z,92.96
2019-02-12T03:30:00.650Z,92.93
2019-02-12T03:32:33.252Z,92.97
2019-02-12T03:35:06.459Z,93.06
2019-02-12T03:37:39.074Z,93.11
2019-02-12T03:40:12.330Z,93.10
2019-02-12T03:42:44.990Z,93.02
2019-02-12T03:45:17.740Z,92.99
2019-02-12T03:47:50.285Z,93.04
2019-02-12T03:50:22.942Z,93.14
2019-02-12T03:52:55.625Z,93.30
2019-02-12T03:55:28.287Z,93.34
2019-02-12T03:58:00.848Z,93.33
2019-02-12T04:00:33.473Z,93.24
2019-02-12T04:03:08.463Z,93.17
2019-02-12T04:05:41.577Z,93.13
2019-02-12T04:08:13.536Z,93.13
2019-02-12T04:10:46.101Z,92.98
2019-02-12T04:13:18.870Z,92.94
2019-02-12T04:15:51.465Z,92.99
2019-02-12T04:18:24.189Z,92.88
2019-02-12T04:20:56.824Z,92.75
2019-02-12T04:23:29.729Z,92.78
2019-02-12T04:26:02.315Z,92.72
2019-02-12T04:28:38.096Z,92.71
2019-02-12T04:31:10.651Z,92.77
2019-02-12T04:33:43.683Z,92.76
2019-02-12T04:36:16.267Z,92.79
2019-02-12T04:38:49.055Z,92.77
2019-02-12T04:41:21.663Z,92.83
2019-02-12T04:43:54.254Z,92.85
2019-02-12T04:46:26.988Z,93.01
2019-02-12T04:48:59.761Z,93.00
2019-02-12T04:51:32.357Z,93.13
2019-02-12T04:54:05.062Z,93.13
2019-02-12T04:56:37.711Z,93.16
2019-02-12T04:59:10.323Z,93.12
2019-02-12T05:01:43.103Z,93.10
2019-02-12T05:04:15.687Z,93.08
2019-02-12T05:06:48.273Z,93.19
2019-02-12T05:09:22.890Z,93.20
2019-02-12T05:12:01.982Z,93.16
2019-02-12T05:14:34.577Z,93.12
2019-02-12T05:17:07.244Z,93.23
2019-02-12T05:19:39.813Z,93.18
2019-02-12T05:22:12.459Z,93.03
2019-02-12T05:24:45.561Z,92.95
2019-02-12T05:27:18.516Z,92.89
2019-02-12T05:29:51.140Z,92.81
2019-02-12T05:32:23.730Z,92.96
2019-02-12T05:34:56.360Z,93.01
2019-02-12T05:37:29.412Z,92.97
2019-02-12T05:40:02.026Z,92.98
2019-02-12T05:42:34.618Z,92.97
2019-02-12T05:45:08.466Z,93.03
2019-02-12T05:47:41.238Z,93.03
2019-02-12T05:50:14.299Z,93.01
2019-02-12T05:52:53.622Z,93.02
2019-02-12T05:55:21.197Z,92.96
2019-02-12T05:57:53.808Z,93.03
2019-02-12T06:00:28.590Z,93.12
2019-02-12T06:03:01.237Z,93.11
2019-02-12T06:05:33.885Z,93.07
2019-02-12T06:08:06.683Z,92.99
2019-02-12T06:10:39.272Z,92.89
2019-02-12T06:13:11.869Z,92.92
2019-02-12T06:15:44.588Z,93.02
2019-02-12T06:18:17.349Z,93.05
2019-02-12T06:20:50.074Z,93.03
2019-02-12T06:23:22.676Z,92.98
2019-02-12T06:25:55.423Z,92.97
2019-02-12T06:28:28.236Z,92.97
2019-02-12T06:31:00.892Z,93.00
2019-02-12T06:33:33.597Z,92.98
2019-02-12T06:36:06.351Z,92.97
2019-02-12T06:38:39.016Z,92.98
2019-02-12T06:41:11.757Z,92.99
2019-02-12T06:43:44.453Z,93.03
2019-02-12T06:46:17.266Z,93.14
2019-02-12T06:48:49.802Z,93.21
2019-02-12T06:51:22.569Z,93.21
2019-02-12T06:53:55.389Z,93.17
2019-02-12T06:56:28.113Z,93.13
2019-02-12T06:59:00.809Z,93.04
2019-02-12T07:01:33.994Z,93.02
2019-02-12T07:04:12.199Z,93.04
2019-02-12T07:07:26.994Z,93.10
2019-02-12T07:10:06.323Z,93.15
2019-02-12T07:13:14.546Z,93.08
2019-02-12T07:16:35.646Z,93.05
2019-02-12T07:20:10.015Z,92.96
2019-02-12T07:23:23.912Z,92.86
2019-02-12T07:27:23.148Z,92.91
2019-02-12T07:30:31.854Z,93.01
2019-02-12T07:34:21.415Z,93.13
2019-02-12T07:37:31.058Z,93.09
2019-02-12T07:41:02.672Z,92.92
2019-02-12T07:44:23.645Z,92.97
2019-02-12T07:48:12.901Z,93.08
2019-02-12T07:51:33.617Z,93.16
2019-02-12T07:55:01.313Z,93.01
2019-02-12T07:58:30.830Z,93.09
2019-02-12T08:01:28.945Z,93.37
2019-02-12T08:05:34.119Z,93.65
2019-02-12T08:08:58.753Z,93.41
2019-02-12T08:11:46.651Z,92.76
2019-02-12T08:14:59.924Z,91.92
2019-02-12T08:18:03.651Z,91.40
2019-02-12T08:21:20.954Z,91.84
2019-02-12T08:24:34.667Z,91.51
2019-02-12T08:28:12.168Z,92.02
2019-02-12T08:31:20.304Z,91.51
2019-02-12T08:34:49.995Z,90.16
2019-02-12T08:38:32.814Z,90.90
2019-02-12T08:41:42.935Z,89.25
2019-02-12T08:45:17.202Z,88.82
2019-02-12T08:48:58.198Z,88.25
2019-02-12T08:52:24.488Z,86.27
2019-02-12T08:55:53.231Z,85.70
2019-02-12T08:59:06.442Z,82.02
2019-02-12T09:02:54.992Z,76.84
2019-02-12T09:06:33.039Z,75.68
2019-02-12T09:10:01.889Z,72.56
2019-02-12T09:13:33.659Z,66.75
2019-02-12T09:16:56.354Z,61.56
2019-02-12T09:19:51.861Z,63.94
2019-02-12T09:23:25.011Z,64.49
2019-02-12T09:26:36.783Z,64.47
2019-02-12T09:30:39.208Z,58.97
2019-02-12T09:34:14.663Z,57.17
2019-02-12T09:37:37.907Z,60.46
2019-02-12T09:40:44.667Z,62.05
2019-02-12T09:44:09.249Z,57.75
2019-02-12T09:47:46.454Z,56.62
2019-02-12T09:51:25.137Z,56.32
2019-02-12T09:54:33.682Z,58.77
2019-02-12T09:57:52.649Z,58.43
2019-02-12T10:00:58.148Z,59.80
2019-02-12T10:04:21.464Z,56.81
2019-02-12T10:07:54.053Z,58.86
2019-02-12T10:11:23.139Z,62.22
2019-02-12T10:14:47.283Z,61.25
2019-02-12T10:18:08.857Z,61.04
2019-02-12T10:21:27.009Z,62.40
2019-02-12T10:24:46.518Z,60.84
2019-02-12T10:28:08.706Z,56.99
2019-02-12T10:31:18.336Z,65.47
2019-02-12T10:33:50.973Z,61.92
2019-02-12T10:36:23.604Z,60.13
2019-02-12T10:38:56.152Z,62.15
2019-02-12T10:41:28.846Z,62.32
2019-02-12T10:44:01.539Z,59.05
2019-02-12T10:46:34.108Z,55.62
2019-02-12T10:49:06.741Z,59.33
2019-02-12T10:51:40.225Z,58.50
2019-02-12T10:54:13.649Z,57.95
2019-02-12T10:56:46.454Z,64.14
2019-02-12T10:59:19.160Z,59.84
2019-02-12T11:01:51.689Z,62.01
2019-02-12T11:04:24.295Z,60.57
2019-02-12T11:06:56.828Z,59.11
2019-02-12T11:09:29.528Z,61.62
2019-02-12T11:12:02.101Z,58.41
2019-02-12T11:14:34.693Z,57.02
2019-02-12T11:17:07.419Z,57.73
2019-02-12T11:19:39.976Z,60.30
2019-02-12T11:22:12.628Z,53.50
2019-02-12T11:24:45.308Z,59.04
2019-02-12T11:27:17.973Z,56.23
2019-02-12T11:29:50.784Z,55.89
2019-02-12T11:32:23.504Z,58.42
2019-02-12T11:34:56.285Z,54.88
2019-02-12T11:37:28.968Z,53.64
2019-02-12T11:40:01.496Z,54.68
2019-02-12T11:42:34.368Z,55.25
2019-02-12T11:45:08.302Z,56.39
2019-02-12T11:47:41.068Z,56.84
2019-02-12T11:50:14.054Z,54.34
2019-02-12T11:52:46.841Z,55.07
2019-02-12T11:55:19.411Z,54.19
2019-02-12T11:57:52.073Z,55.64
2019-02-12T12:00:28.729Z,60.43
2019-02-12T12:03:01.388Z,59.65
2019-02-12T12:05:34.153Z,63.05
2019-02-12T12:08:06.934Z,62.66
2019-02-12T12:10:39.531Z,57.75
2019-02-12T12:13:12.172Z,59.67
2019-02-12T12:15:44.792Z,60.12
2019-02-12T12:18:17.411Z,59.23
2019-02-12T12:20:50.013Z,59.37
2019-02-12T12:23:22.642Z,59.61
2019-02-12T12:25:55.186Z,60.72
2019-02-12T12:28:27.765Z,60.02
2019-02-12T12:31:00.439Z,60.96
2019-02-12T12:33:33.083Z,60.24
2019-02-12T12:36:05.841Z,61.86
2019-02-12T12:38:38.527Z,60.12
2019-02-12T12:41:11.152Z,62.17
2019-02-12T12:43:44.014Z,61.91
2019-02-12T12:46:16.622Z,59.06
2019-02-12T12:48:49.186Z,59.08
2019-02-12T12:51:21.945Z,59.42
2019-02-12T12:53:54.605Z,57.80
2019-02-12T12:56:27.330Z,58.76
2019-02-12T12:58:59.937Z,60.30
2019-02-12T13:01:32.582Z,58.27
2019-02-12T13:04:04.717Z,62.27
2019-02-12T13:06:37.454Z,60.48
2019-02-12T13:09:10.009Z,58.54
2019-02-12T13:11:42.754Z,57.54
2019-02-12T13:14:15.390Z,57.28
2019-02-12T13:16:48.182Z,57.42
2019-02-12T13:19:20.849Z,57.43
2019-02-12T13:21:53.432Z,60.12
2019-02-12T13:24:26.035Z,61.10
2019-02-12T13:26:58.684Z,60.20
2019-02-12T13:29:31.273Z,61.52
2019-02-12T13:32:04.067Z,59.67
2019-02-12T13:34:36.744Z,60.61
2019-02-12T13:37:09.401Z,60.84
2019-02-12T13:39:42.046Z,61.39
2019-02-12T13:42:14.653Z,62.81
2019-02-12T13:44:47.264Z,65.49
2019-02-12T13:47:19.975Z,62.65
2019-02-12T13:49:52.626Z,60.88
2019-02-12T13:52:25.214Z,57.24
2019-02-12T13:54:57.765Z,56.81
2019-02-12T13:57:30.457Z,56.50
2019-02-12T14:00:03.083Z,58.12
2019-02-12T14:02:35.715Z,58.44
2019-02-12T14:05:12.167Z,60.31
2019-02-12T14:07:44.923Z,60.69
2019-02-12T14:10:17.677Z,61.92
2019-02-12T14:12:50.420Z,61.90
2019-02-12T14:15:23.121Z,60.97
2019-02-12T14:17:56.148Z,58.37
2019-02-12T14:20:28.788Z,61.66
2019-02-12T14:23:01.515Z,58.16
2019-02-12T14:25:34.240Z,58.64
2019-02-12T14:28:07.131Z,58.43
2019-02-12T14:30:39.922Z,56.57
2019-02-12T14:33:12.599Z,57.18
2019-02-12T14:35:45.207Z,58.80
2019-02-12T14:38:17.903Z,57.46
2019-02-12T14:40:50.482Z,58.98
2019-02-12T14:43:23.143Z,61.87
2019-02-12T14:45:55.775Z,60.59
2019-02-12T14:48:28.468Z,58.89
2019-02-12T14:51:01.291Z,60.65
2019-02-12T14:53:33.857Z,61.59
2019-02-12T14:56:11.318Z,60.21
2019-02-12T14:58:41.121Z,60.71
2019-02-12T15:01:13.850Z,59.61
2019-02-12T15:03:46.848Z,59.61
2019-02-12T15:06:19.641Z,59.73
2019-02-12T15:08:55.261Z,58.38
2019-02-12T15:11:27.945Z,55.61
2019-02-12T15:14:00.686Z,55.51
2019-02-12T15:16:33.234Z,58.85
2019-02-12T15:19:05.868Z,59.56
2019-02-12T15:21:38.551Z,57.92
2019-02-12T15:24:11.299Z,58.43
2019-02-12T15:26:43.877Z,58.49
2019-02-12T15:29:16.552Z,57.45
2019-02-12T15:31:49.142Z,55.53
2019-02-12T15:34:21.794Z,55.59
2019-02-12T15:36:55.520Z,56.51
2019-02-12T15:39:28.174Z,58.50
2019-02-12T15:42:00.871Z,57.43
2019-02-12T15:44:33.514Z,59.57
2019-02-12T15:47:06.085Z,57.68
2019-02-12T15:49:38.832Z,59.25
2019-02-12T15:52:11.465Z,59.85
2019-02-12T15:54:44.088Z,59.13
2019-02-12T15:57:16.637Z,61.57
2019-02-12T15:59:49.416Z,59.72
2019-02-12T16:02:22.197Z,61.27
2019-02-12T16:04:55.176Z,62.20
2019-02-12T16:07:27.818Z,63.09
2019-02-12T16:10:00.553Z,64.45
2019-02-12T16:12:33.102Z,65.86
2019-02-12T16:15:06.195Z,67.72
2019-02-12T16:17:39.380Z,69.27
2019-02-12T16:20:12.132Z,70.70
2019-02-12T16:22:44.817Z,70.64
2019-02-12T16:25:17.518Z,70.85
2019-02-12T16:27:50.190Z,73.90
2019-02-12T16:30:22.930Z,76.06
2019-02-12T16:32:55.568Z,78.44
2019-02-12T16:35:28.122Z,79.65
2019-02-12T16:38:01.245Z,79.96
2019-02-12T16:40:33.817Z,80.56
2019-02-12T16:43:06.463Z,81.18
2019-02-12T16:46:00.452Z,81.18
2019-02-12T16:48:33.140Z,82.16
2019-02-12T16:51:05.757Z,83.07
2019-02-12T16:53:38.535Z,84.34
2019-02-12T16:56:11.380Z,85.01
2019-02-12T16:58:44.023Z,85.54
2019-02-12T17:01:16.713Z,85.77
2019-02-12T17:03:49.456Z,85.99
2019-02-12T17:06:22.114Z,86.13
2019-02-12T17:08:54.914Z,86.75
2019-02-12T17:11:27.585Z,86.57
2019-02-12T17:14:00.621Z,86.26
2019-02-12T17:16:33.228Z,86.36
2019-02-12T17:19:05.984Z,86.83
2019-02-12T17:21:38.616Z,87.54
2019-02-12T17:24:11.567Z,88.02
2019-02-12T17:26:44.160Z,88.24
2019-02-12T17:29:16.770Z,88.09
2019-02-12T17:31:49.448Z,88.03
2019-02-12T17:34:22.077Z,88.14
2019-02-12T17:36:54.622Z,88.37
2019-02-12T17:39:27.365Z,88.43
2019-02-12T17:42:00.066Z,88.44
2019-02-12T17:44:32.802Z,88.82
2019-02-12T17:47:05.943Z,88.74
2019-02-12T17:49:38.542Z,89.29
2019-02-12T17:52:11.304Z,89.44
2019-02-12T17:54:43.918Z,89.49
2019-02-12T17:57:16.618Z,89.51
2019-02-12T17:59:49.211Z,89.56
2019-02-12T18:02:21.807Z,89.67
2019-02-12T18:04:54.437Z,89.68
2019-02-12T18:07:27.149Z,89.70
2019-02-12T18:09:59.835Z,89.51
2019-02-12T18:12:35.863Z,89.72
2019-02-12T18:15:09.179Z,89.84
2019-02-12T18:17:41.832Z,90.07
2019-02-12T18:20:14.778Z,90.18
2019-02-12T18:22:47.396Z,90.34
2019-02-12T18:25:20.030Z,90.68
2019-02-12T18:27:52.586Z,90.86
2019-02-12T18:30:25.252Z,91.00
2019-02-12T18:32:57.837Z,90.99
2019-02-12T18:35:30.537Z,90.93
2019-02-12T18:38:03.308Z,90.81
2019-02-12T18:40:36.096Z,90.78
2019-02-12T18:43:09.057Z,90.68
2019-02-12T18:45:41.710Z,90.77
2019-02-12T18:48:14.592Z,91.07
2019-02-12T18:50:47.264Z,91.06
2019-02-12T18:53:19.981Z,91.04
2019-02-12T18:55:52.829Z,91.10
2019-02-12T18:58:25.526Z,91.21
2019-02-12T19:01:00.706Z,91.23
2019-02-12T19:03:34.789Z,91.26
2019-02-12T19:06:07.993Z,91.21
2019-02-12T19:08:40.662Z,91.14
2019-02-12T19:11:13.362Z,91.22
2019-02-12T19:13:46.031Z,91.13
2019-02-12T19:16:18.672Z,91.11
2019-02-12T19:18:51.395Z,91.20
2019-02-12T19:21:24.012Z,91.32
2019-02-12T19:23:56.837Z,91.49
2019-02-12T19:26:29.584Z,91.54
2019-02-12T19:29:02.512Z,91.68
2019-02-12T19:31:35.359Z,91.83
2019-02-12T19:34:08.131Z,91.77
2019-02-12T19:36:41.635Z,91.68
2019-02-12T19:39:14.196Z,91.50
2019-02-12T19:41:46.870Z,91.53
2019-02-12T19:44:19.520Z,91.93
2019-02-12T19:46:52.152Z,92.34
2019-02-12T19:49:24.834Z,92.14
2019-02-12T19:51:57.426Z,92.07
2019-02-12T19:54:30.337Z,91.92
2019-02-12T19:57:02.944Z,91.79
2019-02-12T19:59:35.697Z,91.72
2019-02-12T20:02:08.863Z,91.52
2019-02-12T20:04:41.548Z,91.47
2019-02-12T20:07:14.216Z,91.51
2019-02-12T20:09:46.960Z,91.71
2019-02-12T20:12:19.572Z,91.87
2019-02-12T20:14:52.330Z,91.88
2019-02-12T20:17:24.959Z,91.84
2019-02-12T20:19:57.810Z,91.94
2019-02-12T20:22:30.554Z,91.86
2019-02-12T20:25:06.412Z,91.84
2019-02-12T20:27:39.191Z,91.89
2019-02-12T20:30:14.483Z,92.03
2019-02-12T20:32:47.160Z,92.08
2019-02-12T20:35:19.758Z,92.10
2019-02-12T20:37:52.482Z,92.08
2019-02-12T20:40:25.070Z,91.95
2019-02-12T20:42:57.788Z,91.88
2019-02-12T20:45:30.444Z,92.00
2019-02-12T20:48:04.332Z,92.03
2019-02-12T20:50:37.039Z,92.31
2019-02-12T20:53:09.692Z,92.45
2019-02-12T20:55:42.587Z,92.28
2019-02-12T20:58:15.348Z,92.37
2019-02-12T21:00:48.400Z,92.27
2019-02-12T21:03:21.036Z,92.00
2019-02-12T21:05:53.699Z,91.90
2019-02-12T21:08:26.470Z,91.92
2019-02-12T21:10:59.055Z,91.95
2019-02-12T21:13:31.826Z,91.93
2019-02-12T21:16:04.255Z,91.75
2019-02-12T21:18:37.058Z,91.97
2019-02-12T21:21:09.597Z,92.04
2019-02-12T21:23:42.220Z,92.27
2019-02-12T21:26:14.846Z,92.32
2019-02-12T21:28:47.521Z,92.18
2019-02-12T21:31:19.430Z,92.23
2019-02-12T21:33:52.259Z,92.11
2019-02-12T21:36:25.025Z,91.97
2019-02-12T21:38:57.659Z,91.96
2019-02-12T21:41:30.920Z,91.99
2019-02-12T21:44:03.577Z,91.97
2019-02-12T21:46:36.199Z,92.09
2019-02-12T21:49:09.427Z,92.05
2019-02-12T21:51:42.211Z,91.86
2019-02-12T21:54:14.928Z,91.73
2019-02-12T21:56:47.483Z,91.54
2019-02-12T21:59:20.231Z,91.60
2019-02-12T22:01:52.851Z,91.59
2019-02-12T22:04:25.699Z,91.75
2019-02-12T22:06:58.400Z,91.86
2019-02-12T22:09:31.172Z,91.84
2019-02-12T22:12:03.809Z,91.91
2019-02-12T22:14:36.609Z,91.86
2019-02-12T22:17:09.312Z,91.79
2019-02-12T22:19:41.842Z,91.84
2019-02-12T22:22:14.622Z,91.98
2019-02-12T22:24:47.391Z,92.13
2019-02-12T22:27:20.045Z,92.04
2019-02-12T22:29:55.132Z,92.18
2019-02-12T22:32:27.794Z,92.22
2019-02-12T22:35:00.426Z,92.18
2019-02-12T22:37:33.073Z,92.02
2019-02-12T22:40:06.373Z,92.17
2019-02-12T22:42:39.141Z,92.15
2019-02-12T22:45:17.804Z,92.07
2019-02-12T22:47:51.557Z,92.07
2019-02-12T22:50:24.259Z,92.08
2019-02-12T22:52:57.096Z,92.10
2019-02-12T22:55:29.716Z,92.20
2019-02-12T22:58:02.527Z,92.14
2019-02-12T23:00:55.487Z,92.15
2019-02-12T23:03:28.319Z,92.13
2019-02-12T23:06:01.018Z,92.17
2019-02-12T23:08:33.791Z,92.22
2019-02-12T23:11:08.182Z,92.26
2019-02-12T23:13:39.979Z,92.52
2019-02-12T23:16:12.530Z,92.37
2019-02-12T23:18:45.168Z,92.47
2019-02-12T23:21:17.946Z,92.48
2019-02-12T23:23:50.640Z,92.33
2019-02-12T23:26:23.292Z,92.18
2019-02-12T23:28:56.060Z,92.07
2019-02-12T23:31:28.639Z,92.19
2019-02-12T23:34:01.344Z,92.33
2019-02-12T23:36:34.007Z,92.08
2019-02-12T23:39:07.579Z,92.19
2019-02-12T23:41:40.354Z,92.22
2019-02-12T23:44:13.185Z,92.33
2019-02-12T23:46:45.853Z,92.18
2019-02-12T23:49:18.426Z,92.10
2019-02-12T23:51:51.041Z,92.00
2019-02-12T23:54:23.602Z,92.07
2019-02-12T23:56:55.898Z,92.01
2019-02-12T23:59:28.649Z,91.91
